createdAt,value
2018-04-11T00:00:31.115Z,981.19
2018-04-11T00:01:31.110Z,981.2
2018-04-11T00:02:31.105Z,981.21
2018-04-11T00:03:31.101Z,981.23
2018-04-11T00:04:31.097Z,981.29
2018-04-11T00:05:31.091Z,981.26
2018-04-11T00:06:31.090Z,981.29
2018-04-11T00:07:31.086Z,981.23
2018-04-11T00:08:31.092Z,981.23
2018-04-11T00:09:31.083Z,981.2
2018-04-11T00:10:31.074Z,981.18
2018-04-11T00:11:31.070Z,981.15
2018-04-11T00:12:31.072Z,981.16
2018-04-11T00:13:31.062Z,981.18
2018-04-11T00:14:31.060Z,981.2
2018-04-11T00:15:31.055Z,981.14
2018-04-11T00:16:31.053Z,981.21
2018-04-11T00:17:31.048Z,981.18
2018-04-11T00:18:31.044Z,981.17
2018-04-11T00:19:31.045Z,981.17
2018-04-11T00:20:31.037Z,981.18
2018-04-11T00:21:31.034Z,981.2
2018-04-11T00:22:31.078Z,981.19
2018-04-11T00:23:31.026Z,981.21
2018-04-11T00:24:31.046Z,981.2
2018-04-11T00:25:31.018Z,981.22
2018-04-11T00:26:31.014Z,981.19
2018-04-11T00:27:31.010Z,981.24
2018-04-11T00:28:31.008Z,981.21
2018-04-11T00:29:31.002Z,981.18
2018-04-11T00:30:30.994Z,981.2
2018-04-11T00:31:30.990Z,981.18
2018-04-11T00:32:30.984Z,981.25
2018-04-11T00:33:31.432Z,981.28
2018-04-11T00:34:30.977Z,981.23
2018-04-11T00:35:30.972Z,981.23
2018-04-11T00:36:30.965Z,981.23
2018-04-11T00:37:30.963Z,981.24
2018-04-11T00:38:30.959Z,981.24
2018-04-11T00:39:30.960Z,981.2
2018-04-11T00:40:30.954Z,981.2
2018-04-11T00:41:30.953Z,981.18
2018-04-11T00:42:30.943Z,981.18
2018-04-11T00:43:30.939Z,981.21
2018-04-11T00:44:30.931Z,981.22
2018-04-11T00:45:30.926Z,981.19
2018-04-11T00:46:30.924Z,981.24
2018-04-11T00:47:30.919Z,981.22
2018-04-11T00:48:36.169Z,981.21
2018-04-11T00:49:30.908Z,981.26
2018-04-11T00:50:30.906Z,981.2
2018-04-11T00:51:30.902Z,981.25
2018-04-11T00:52:30.913Z,981.21
2018-04-11T00:53:30.903Z,981.21
2018-04-11T00:54:30.902Z,981.19
2018-04-11T00:55:30.936Z,981.21
2018-04-11T00:56:30.879Z,981.24
2018-04-11T00:57:30.873Z,981.19
2018-04-11T00:58:30.870Z,981.25
2018-04-11T00:59:30.863Z,981.23
2018-04-11T01:00:30.859Z,981.21
2018-04-11T01:01:30.858Z,981.26
2018-04-11T01:02:30.852Z,981.28
2018-04-11T01:03:30.847Z,981.2
2018-04-11T01:04:30.848Z,981.23
2018-04-11T01:05:30.850Z,981.2
2018-04-11T01:06:30.847Z,981.22
2018-04-11T01:07:30.848Z,981.16
2018-04-11T01:08:30.828Z,981.21
2018-04-11T01:09:30.821Z,981.2
2018-04-11T01:10:30.815Z,981.21
2018-04-11T01:11:30.811Z,981.21
2018-04-11T01:12:30.808Z,981.22
2018-04-11T01:13:30.803Z,981.19
2018-04-11T01:14:30.800Z,981.23
2018-04-11T01:15:30.794Z,981.21
2018-04-11T01:16:30.790Z,981.24
2018-04-11T01:17:30.785Z,981.23
2018-04-11T01:18:30.781Z,981.25
2018-04-11T01:19:30.779Z,981.2
2018-04-11T01:20:30.775Z,981.22
2018-04-11T01:21:30.780Z,981.24
2018-04-11T01:22:30.765Z,981.21
2018-04-11T01:23:30.762Z,981.21
2018-04-11T01:24:30.756Z,981.16
2018-04-11T01:25:30.751Z,981.15
2018-04-11T01:26:30.748Z,981.16
2018-04-11T01:27:30.743Z,981.18
2018-04-11T01:28:30.740Z,981.16
2018-04-11T01:29:30.733Z,981.13
2018-04-11T01:30:30.731Z,981.13
2018-04-11T01:31:30.725Z,981.09
2018-04-11T01:32:30.734Z,981.12
2018-04-11T01:33:30.716Z,981.14
2018-04-11T01:34:30.715Z,981.09
2018-04-11T01:35:30.713Z,981.07
2018-04-11T01:36:30.707Z,981.06
2018-04-11T01:37:30.698Z,981.03
2018-04-11T01:38:30.694Z,981.05
2018-04-11T01:39:30.687Z,981.06
2018-04-11T01:40:30.683Z,981.07
2018-04-11T01:41:30.687Z,981.06
2018-04-11T01:42:30.675Z,981.1
2018-04-11T01:43:30.669Z,981.05
2018-04-11T01:44:30.666Z,981.04
2018-04-11T01:45:30.668Z,981.06
2018-04-11T01:46:30.657Z,981.07
2018-04-11T01:47:30.653Z,981.08
2018-04-11T01:48:30.656Z,981.08
2018-04-11T01:49:34.052Z,981.04
2018-04-11T01:50:30.642Z,981.1
2018-04-11T01:51:30.633Z,981.08
2018-04-11T01:52:30.631Z,981.07
2018-04-11T01:53:30.626Z,981.09
2018-04-11T01:54:30.622Z,981.03
2018-04-11T01:55:30.619Z,981.03
2018-04-11T01:56:30.610Z,981.03
2018-04-11T01:57:30.606Z,981.02
2018-04-11T01:58:30.603Z,981.02
2018-04-11T01:59:30.596Z,981.02
2018-04-11T02:00:30.595Z,980.98
2018-04-11T02:01:30.596Z,981.02
2018-04-11T02:02:30.582Z,981
2018-04-11T02:03:30.579Z,981.04
2018-04-11T02:04:30.573Z,981.01
2018-04-11T02:05:30.567Z,980.98
2018-04-11T02:06:30.564Z,980.99
2018-04-11T02:07:30.561Z,980.96
2018-04-11T02:08:30.559Z,980.97
2018-04-11T02:09:30.553Z,980.95
2018-04-11T02:10:30.546Z,981.01
2018-04-11T02:11:30.546Z,980.98
2018-04-11T02:12:30.538Z,980.98
2018-04-11T02:13:30.539Z,981.02
2018-04-11T02:14:30.527Z,981
2018-04-11T02:15:30.521Z,981.03
2018-04-11T02:16:30.516Z,981.03
2018-04-11T02:17:30.509Z,981.02
2018-04-11T02:18:30.512Z,981.07
2018-04-11T02:19:30.512Z,981.03
2018-04-11T02:20:30.496Z,981.06
2018-04-11T02:21:30.489Z,980.99
2018-04-11T02:22:30.485Z,980.99
2018-04-11T02:23:30.479Z,980.95
2018-04-11T02:24:30.482Z,980.94
2018-04-11T02:25:30.469Z,980.95
2018-04-11T02:26:30.465Z,980.95
2018-04-11T02:27:30.464Z,980.98
2018-04-11T02:28:30.452Z,980.97
2018-04-11T02:29:30.458Z,981.01
2018-04-11T02:30:30.446Z,980.96
2018-04-11T02:31:30.439Z,980.96
2018-04-11T02:32:30.433Z,980.97
2018-04-11T02:33:30.434Z,981.04
2018-04-11T02:34:30.425Z,981.03
2018-04-11T02:35:30.420Z,980.98
2018-04-11T02:36:30.429Z,981
2018-04-11T02:37:30.409Z,981
2018-04-11T02:38:30.408Z,981.03
2018-04-11T02:39:30.400Z,980.99
2018-04-11T02:40:30.394Z,980.98
2018-04-11T02:41:30.405Z,980.99
2018-04-11T02:42:30.391Z,981.04
2018-04-11T02:43:30.384Z,981
2018-04-11T02:44:30.378Z,981.05
2018-04-11T02:45:30.373Z,981.05
2018-04-11T02:46:30.367Z,981.06
2018-04-11T02:47:30.361Z,981.14
2018-04-11T02:48:30.356Z,981.08
2018-04-11T02:49:30.350Z,981.09
2018-04-11T02:50:30.649Z,981.08
2018-04-11T02:51:30.343Z,981.07
2018-04-11T02:52:30.336Z,981.06
2018-04-11T02:53:30.333Z,981.06
2018-04-11T02:54:30.327Z,981.04
2018-04-11T02:55:30.321Z,981.1
2018-04-11T02:56:30.324Z,981.03
2018-04-11T02:57:30.320Z,981.08
2018-04-11T02:58:30.307Z,981.04
2018-04-11T02:59:30.317Z,981.05
2018-04-11T03:00:30.295Z,981.07
2018-04-11T03:01:30.292Z,981.06
2018-04-11T03:02:30.286Z,981.1
2018-04-11T03:03:30.284Z,981.11
2018-04-11T03:04:30.276Z,981.11
2018-04-11T03:05:30.270Z,981.1
2018-04-11T03:06:30.266Z,981.13
2018-04-11T03:07:30.268Z,981.11
2018-04-11T03:08:30.261Z,981.06
2018-04-11T03:09:30.251Z,981.04
2018-04-11T03:10:30.246Z,981.05
2018-04-11T03:11:30.244Z,981.05
2018-04-11T03:12:30.235Z,981.09
2018-04-11T03:13:30.231Z,981.08
2018-04-11T03:14:30.227Z,981.08
2018-04-11T03:15:30.218Z,981.05
2018-04-11T03:16:30.214Z,981.13
2018-04-11T03:17:30.209Z,981.09
2018-04-11T03:18:30.202Z,981.09
2018-04-11T03:19:30.199Z,981.1
2018-04-11T03:20:33.705Z,981.11
2018-04-11T03:21:30.186Z,981.14
2018-04-11T03:22:30.179Z,981.11
2018-04-11T03:23:30.174Z,981.11
2018-04-11T03:24:30.171Z,981.12
2018-04-11T03:25:30.163Z,981.13
2018-04-11T03:26:30.158Z,981.11
2018-04-11T03:27:30.155Z,981.11
2018-04-11T03:28:30.146Z,981.09
2018-04-11T03:29:30.140Z,981.1
2018-04-11T03:37:50.473Z,981.1
2018-04-11T03:38:50.480Z,981.07
2018-04-11T03:39:50.478Z,981.06
2018-04-11T03:40:50.467Z,981.05
2018-04-11T03:41:50.447Z,981.09
2018-04-11T03:42:50.442Z,981.11
2018-04-11T03:43:50.431Z,981.06
2018-04-11T03:44:50.433Z,981.08
2018-04-11T03:45:50.417Z,981.09
2018-04-11T03:46:50.416Z,981.09
2018-04-11T03:47:50.415Z,981.05
2018-04-11T03:48:50.463Z,981.07
2018-04-11T03:49:50.394Z,981.09
2018-04-11T03:50:50.390Z,981.04
2018-04-11T03:51:50.380Z,981.04
2018-04-11T03:52:53.881Z,981.05
2018-04-11T03:53:50.370Z,981.09
2018-04-11T03:54:50.384Z,981.09
2018-04-11T03:55:50.358Z,981.15
2018-04-11T03:56:50.352Z,981.12
2018-04-11T03:57:50.347Z,981.12
2018-04-11T03:58:50.349Z,981.09
2018-04-11T03:59:50.335Z,981.12
2018-04-11T04:00:50.328Z,981.17
2018-04-11T04:01:50.325Z,981.15
2018-04-11T04:02:50.317Z,981.23
2018-04-11T04:03:50.320Z,981.22
2018-04-11T04:04:50.309Z,981.26
2018-04-11T04:05:50.301Z,981.27
2018-04-11T04:06:50.296Z,981.31
2018-04-11T04:07:50.337Z,981.3
2018-04-11T04:08:50.292Z,981.32
2018-04-11T04:09:50.283Z,981.34
2018-04-11T04:10:50.272Z,981.31
2018-04-11T04:11:50.266Z,981.29
2018-04-11T04:12:50.263Z,981.33
2018-04-11T04:13:50.257Z,981.3
2018-04-11T04:14:50.257Z,981.25
2018-04-11T04:15:50.244Z,981.29
2018-04-11T04:16:50.239Z,981.29
2018-04-11T04:17:50.232Z,981.3
2018-04-11T04:18:50.231Z,981.3
2018-04-11T04:19:50.265Z,981.31
2018-04-11T04:20:50.219Z,981.29
2018-04-11T04:21:50.210Z,981.35
2018-04-11T04:22:50.204Z,981.35
2018-04-11T04:23:50.205Z,981.34
2018-04-11T04:24:50.195Z,981.31
2018-04-11T04:25:50.187Z,981.38
2018-04-11T04:26:50.181Z,981.34
2018-04-11T04:27:50.176Z,981.32
2018-04-11T04:28:50.175Z,981.37
2018-04-11T04:29:50.167Z,981.32
2018-04-11T04:30:50.157Z,981.32
2018-04-11T04:31:50.158Z,981.37
2018-04-11T04:32:50.145Z,981.34
2018-04-11T04:33:50.142Z,981.37
2018-04-11T04:34:50.138Z,981.41
2018-04-11T04:35:50.126Z,981.44
2018-04-11T04:36:50.126Z,981.41
2018-04-11T04:37:50.113Z,981.42
2018-04-11T04:38:50.108Z,981.45
2018-04-11T04:39:50.161Z,981.47
2018-04-11T04:40:50.167Z,981.48
2018-04-11T04:41:50.092Z,981.49
2018-04-11T04:42:50.090Z,981.5
2018-04-11T04:43:50.080Z,981.5
2018-04-11T04:44:50.073Z,981.5
2018-04-11T04:45:50.074Z,981.51
2018-04-11T04:46:50.067Z,981.53
2018-04-11T04:47:50.062Z,981.49
2018-04-11T04:48:50.051Z,981.52
2018-04-11T04:49:50.045Z,981.51
2018-04-11T04:50:50.039Z,981.54
2018-04-11T04:51:50.034Z,981.52
2018-04-11T04:52:50.028Z,981.54
2018-04-11T04:53:50.022Z,981.52
2018-04-11T04:54:50.016Z,981.52
2018-04-11T04:55:50.015Z,981.54
2018-04-11T04:56:50.003Z,981.59
2018-04-11T04:57:49.998Z,981.57
2018-04-11T04:58:49.994Z,981.6
2018-04-11T04:59:49.986Z,981.6
2018-04-11T05:00:49.988Z,981.65
2018-04-11T05:01:49.976Z,981.62
2018-04-11T05:02:49.971Z,981.64
2018-04-11T05:03:49.964Z,981.65
2018-04-11T05:04:49.959Z,981.63
2018-04-11T05:05:49.954Z,981.7
2018-04-11T05:06:49.945Z,981.69
2018-04-11T05:07:49.940Z,981.71
2018-04-11T05:08:49.934Z,981.74
2018-04-11T05:09:49.930Z,981.76
2018-04-11T05:10:49.926Z,981.7
2018-04-11T05:11:49.918Z,981.72
2018-04-11T05:12:49.913Z,981.74
2018-04-11T05:13:49.908Z,981.69
2018-04-11T05:14:49.903Z,981.75
2018-04-11T05:15:49.898Z,981.73
2018-04-11T05:16:49.892Z,981.73
2018-04-11T05:17:49.886Z,981.75
2018-04-11T05:18:49.882Z,981.8
2018-04-11T05:19:49.891Z,981.83
2018-04-11T05:20:49.877Z,981.86
2018-04-11T05:21:49.913Z,981.86
2018-04-11T05:22:49.864Z,981.84
2018-04-11T05:23:49.865Z,981.85
2018-04-11T05:24:49.875Z,981.84
2018-04-11T05:25:49.848Z,981.81
2018-04-11T05:26:49.844Z,981.77
2018-04-11T05:27:49.839Z,981.77
2018-04-11T05:28:49.841Z,981.79
2018-04-11T05:29:49.832Z,981.78
2018-04-11T05:30:49.827Z,981.81
2018-04-11T05:31:49.824Z,981.78
2018-04-11T05:32:49.823Z,981.79
2018-04-11T05:33:49.826Z,981.74
2018-04-11T05:34:49.819Z,981.78
2018-04-11T05:35:49.826Z,981.8
2018-04-11T05:36:49.823Z,981.8
2018-04-11T05:37:49.828Z,981.87
2018-04-11T05:38:49.812Z,981.8
2018-04-11T05:39:49.812Z,981.83
2018-04-11T05:40:49.812Z,981.89
2018-04-11T05:41:49.814Z,981.84
2018-04-11T05:42:49.799Z,981.74
2018-04-11T05:43:49.799Z,981.74
2018-04-11T05:44:49.797Z,981.81
2018-04-11T05:45:49.796Z,981.78
2018-04-11T05:46:49.802Z,981.78
2018-04-11T05:47:49.795Z,981.75
2018-04-11T05:48:49.798Z,981.77
2018-04-11T05:49:49.795Z,981.77
2018-04-11T05:50:49.794Z,981.8
2018-04-11T05:51:49.794Z,981.71
2018-04-11T05:52:49.796Z,981.65
2018-04-11T05:53:49.792Z,981.71
2018-04-11T05:54:49.792Z,981.72
2018-04-11T05:55:49.792Z,981.77
2018-04-11T05:56:49.796Z,981.71
2018-04-11T05:57:49.795Z,981.75
2018-04-11T05:58:49.838Z,981.73
2018-04-11T05:59:49.787Z,981.76
2018-04-11T06:00:49.856Z,981.73
2018-04-11T06:01:49.786Z,981.74
2018-04-11T06:02:49.785Z,981.7
2018-04-11T06:03:49.784Z,981.73
2018-04-11T06:04:49.783Z,981.7
2018-04-11T06:05:49.783Z,981.71
2018-04-11T06:06:49.778Z,981.67
2018-04-11T06:07:49.777Z,981.71
2018-04-11T06:08:49.773Z,981.73
2018-04-11T06:09:51.623Z,981.72
2018-04-11T06:10:49.770Z,981.71
2018-04-11T06:11:49.768Z,981.7
2018-04-11T06:12:49.775Z,981.73
2018-04-11T06:22:08.371Z,981.87
2018-04-11T06:23:08.364Z,981.93
2018-04-11T06:24:08.355Z,981.89
2018-04-11T06:25:08.531Z,981.94
2018-04-11T06:26:08.344Z,981.92
2018-04-11T06:27:08.589Z,981.94
2018-04-11T06:28:08.358Z,981.93
2018-04-11T06:29:08.330Z,981.99
2018-04-11T06:30:08.562Z,981.95
2018-04-11T06:31:08.325Z,981.95
2018-04-11T06:32:08.319Z,981.96
2018-04-11T06:33:08.315Z,981.97
2018-04-11T06:34:08.315Z,981.96
2018-04-11T06:35:08.578Z,981.94
2018-04-11T06:36:08.316Z,981.91
2018-04-11T06:37:08.311Z,981.88
2018-04-11T06:38:08.310Z,981.88
2018-04-11T06:39:08.309Z,981.79
2018-04-11T06:40:08.631Z,981.76
2018-04-11T06:41:08.312Z,981.8
2018-04-11T06:42:08.320Z,981.74
2018-04-11T06:43:08.314Z,981.79
2018-04-11T06:44:08.316Z,981.73
2018-04-11T06:45:08.562Z,981.77
2018-04-11T06:46:08.358Z,981.73
2018-04-11T06:47:08.319Z,981.72
2018-04-11T06:48:08.320Z,981.76
2018-04-11T06:49:08.322Z,981.76
2018-04-11T06:50:08.547Z,981.67
2018-04-11T06:51:08.332Z,981.67
2018-04-11T06:52:08.332Z,981.66
2018-04-11T06:53:08.334Z,981.65
2018-04-11T06:54:08.339Z,981.62
2018-04-11T06:55:08.742Z,981.62
2018-04-11T06:56:08.349Z,981.57
2018-04-11T06:57:09.565Z,981.64
2018-04-11T06:58:08.353Z,981.6
2018-04-11T06:59:08.361Z,981.62
2018-04-11T07:00:08.706Z,981.65
2018-04-11T07:01:08.376Z,981.63
2018-04-11T07:02:08.387Z,981.63
2018-04-11T07:03:08.380Z,981.65
2018-04-11T07:04:08.383Z,981.64
2018-04-11T07:05:08.622Z,981.65
2018-04-11T07:06:08.389Z,981.65
2018-04-11T07:07:08.395Z,981.62
2018-04-11T07:08:08.400Z,981.63
2018-04-11T07:09:08.405Z,981.64
2018-04-11T07:10:08.577Z,981.6
2018-04-11T07:11:08.415Z,981.59
2018-04-11T07:12:08.421Z,981.57
2018-04-11T07:13:08.426Z,981.51
2018-04-11T07:14:08.460Z,981.5
2018-04-11T07:15:08.677Z,981.49
2018-04-11T07:16:08.440Z,981.49
2018-04-11T07:17:08.447Z,981.47
2018-04-11T07:18:08.450Z,981.44
2018-04-11T07:19:08.455Z,981.46
2018-04-11T07:20:08.746Z,981.47
2018-04-11T07:21:08.464Z,981.48
2018-04-11T07:22:08.468Z,981.47
2018-04-11T07:23:08.473Z,981.48
2018-04-11T07:24:08.477Z,981.45
2018-04-11T07:25:08.773Z,981.44
2018-04-11T07:26:08.488Z,981.42
2018-04-11T07:27:08.488Z,981.42
2018-04-11T07:28:08.517Z,981.41
2018-04-11T07:29:08.495Z,981.4
2018-04-11T07:30:08.673Z,981.39
2018-04-11T07:31:08.501Z,981.45
2018-04-11T07:32:08.516Z,981.47
2018-04-11T07:33:08.517Z,981.5
2018-04-11T07:34:08.527Z,981.51
2018-04-11T07:35:08.713Z,981.52
2018-04-11T07:36:08.521Z,981.54
2018-04-11T07:37:08.522Z,981.56
2018-04-11T07:38:08.524Z,981.5
2018-04-11T07:39:08.528Z,981.53
2018-04-11T07:40:08.816Z,981.52
2018-04-11T07:41:08.536Z,981.57
2018-04-11T07:42:08.544Z,981.55
2018-04-11T07:43:08.545Z,981.51
2018-04-11T07:44:08.552Z,981.53
2018-04-11T07:45:08.826Z,981.53
2018-04-11T07:46:08.625Z,981.48
2018-04-11T07:47:08.568Z,981.47
2018-04-11T07:48:08.581Z,981.48
2018-04-11T07:49:08.583Z,981.42
2018-04-11T07:50:08.887Z,981.42
2018-04-11T07:51:08.583Z,981.42
2018-04-11T07:52:08.589Z,981.48
2018-04-11T07:53:08.593Z,981.46
2018-04-11T07:54:08.599Z,981.49
2018-04-11T07:55:08.945Z,981.53
2018-04-11T07:56:08.608Z,981.53
2018-04-11T07:57:08.613Z,981.55
2018-04-11T07:58:08.614Z,981.54
2018-04-11T07:59:08.617Z,981.57
2018-04-11T08:00:08.959Z,981.61
2018-04-11T08:01:08.623Z,981.62
2018-04-11T08:02:08.625Z,981.63
2018-04-11T08:03:08.647Z,981.63
2018-04-11T08:04:08.631Z,981.62
2018-04-11T08:05:08.908Z,981.59
2018-04-11T08:06:08.638Z,981.55
2018-04-11T08:07:08.637Z,981.58
2018-04-11T08:08:08.640Z,981.55
2018-04-11T08:09:08.644Z,981.5
2018-04-11T08:10:08.879Z,981.49
2018-04-11T08:11:08.650Z,981.47
2018-04-11T08:12:08.653Z,981.45
2018-04-11T08:13:08.655Z,981.45
2018-04-11T08:14:08.661Z,981.44
2018-04-11T08:15:08.893Z,981.44
2018-04-11T08:16:08.669Z,981.45
2018-04-11T08:17:08.672Z,981.42
2018-04-11T08:18:08.675Z,981.42
2018-04-11T08:19:08.684Z,981.39
2018-04-11T08:20:08.990Z,981.33
2018-04-11T08:21:08.690Z,981.34
2018-04-11T08:22:08.694Z,981.33
2018-04-11T08:23:08.702Z,981.35
2018-04-11T08:24:08.706Z,981.36
2018-04-11T08:25:08.992Z,981.35
2018-04-11T08:26:08.716Z,981.37
2018-04-11T08:27:08.721Z,981.37
2018-04-11T08:28:08.729Z,981.34
2018-04-11T08:29:08.731Z,981.38
2018-04-11T08:30:09.094Z,981.33
2018-04-11T08:31:08.742Z,981.34
2018-04-11T08:32:08.749Z,981.25
2018-04-11T08:33:08.754Z,981.33
2018-04-11T08:34:08.762Z,981.33
2018-04-11T08:35:09.135Z,981.33
2018-04-11T08:36:08.768Z,981.3
2018-04-11T08:37:08.772Z,981.31
2018-04-11T08:38:08.777Z,981.3
2018-04-11T08:39:08.786Z,981.31
2018-04-11T08:40:09.148Z,981.31
2018-04-11T08:41:08.794Z,981.28
2018-04-11T08:42:08.799Z,981.27
2018-04-11T08:43:08.803Z,981.22
2018-04-11T08:44:08.821Z,981.2
2018-04-11T08:45:09.134Z,981.22
2018-04-11T08:46:08.817Z,981.22
2018-04-11T08:47:08.823Z,981.21
2018-04-11T08:48:08.823Z,981.15
2018-04-11T08:49:08.846Z,981.15
2018-04-11T08:50:09.216Z,981.14
2018-04-11T08:51:08.834Z,981.17
2018-04-11T08:52:08.837Z,981.2
2018-04-11T08:53:08.839Z,981.23
2018-04-11T08:54:08.843Z,981.22
2018-04-11T08:55:09.214Z,981.2
2018-04-11T08:56:08.846Z,981.22
2018-04-11T08:57:08.852Z,981.2
2018-04-11T08:58:08.852Z,981.23
2018-04-11T08:59:08.853Z,981.15
2018-04-11T09:00:09.191Z,981.15
2018-04-11T09:01:08.859Z,981.18
2018-04-11T09:02:08.858Z,981.17
2018-04-11T09:03:08.860Z,981.19
2018-04-11T09:04:08.877Z,981.18
2018-04-11T09:05:09.267Z,981.21
2018-04-11T09:06:08.884Z,981.16
2018-04-11T09:07:08.864Z,981.2
2018-04-11T09:08:08.880Z,981.18
2018-04-11T09:09:08.874Z,981.18
2018-04-11T09:10:09.226Z,981.19
2018-04-11T09:11:08.875Z,981.23
2018-04-11T09:12:08.880Z,981.19
2018-04-11T09:13:12.277Z,981.18
2018-04-11T09:14:08.884Z,981.2
2018-04-11T09:15:09.275Z,981.2
2018-04-11T09:16:08.918Z,981.21
2018-04-11T09:17:08.890Z,981.21
2018-04-11T09:18:08.886Z,981.17
2018-04-11T09:19:08.885Z,981.25
2018-04-11T09:20:09.324Z,981.14
2018-04-11T09:21:08.886Z,981.18
2018-04-11T09:22:08.880Z,981.09
2018-04-11T09:23:08.882Z,981.08
2018-04-11T09:24:08.895Z,981.08
2018-04-11T09:25:09.263Z,981.06
2018-04-11T09:26:08.935Z,981.05
2018-04-11T09:27:08.883Z,981.05
2018-04-11T09:28:08.884Z,981
2018-04-11T09:29:08.889Z,980.96
2018-04-11T09:30:09.245Z,980.94
2018-04-11T09:31:08.911Z,980.97
2018-04-11T09:32:08.890Z,980.99
2018-04-11T09:33:08.898Z,980.94
2018-04-11T09:34:08.889Z,980.95
2018-04-11T09:35:09.262Z,980.9
2018-04-11T09:36:08.894Z,980.97
2018-04-11T09:37:08.894Z,980.91
2018-04-11T09:38:08.903Z,980.89
2018-04-11T09:39:08.896Z,980.87
2018-04-11T09:40:09.305Z,980.86
2018-04-11T09:41:08.903Z,980.84
2018-04-11T09:42:08.904Z,980.91
2018-04-11T09:43:08.898Z,980.9
2018-04-11T09:44:08.899Z,980.88
2018-04-11T09:45:09.304Z,980.89
2018-04-11T09:46:08.902Z,980.84
2018-04-11T09:47:08.902Z,980.88
2018-04-11T09:48:08.905Z,980.89
2018-04-11T09:49:08.903Z,980.91
2018-04-11T09:50:09.285Z,980.93
2018-04-11T09:51:08.912Z,980.86
2018-04-11T09:52:08.905Z,980.86
2018-04-11T09:53:08.906Z,980.91
2018-04-11T09:54:08.910Z,980.92
2018-04-11T09:55:09.353Z,980.86
2018-04-11T09:56:08.910Z,980.84
2018-04-11T09:57:08.908Z,980.86
2018-04-11T09:58:08.932Z,980.81
2018-04-11T09:59:08.915Z,980.79
2018-04-11T10:00:09.213Z,980.81
2018-04-11T10:01:08.915Z,980.75
2018-04-11T10:02:08.915Z,980.81
2018-04-11T10:03:08.917Z,980.74
2018-04-11T10:04:08.923Z,980.77
2018-04-11T10:05:09.291Z,980.76
2018-04-11T10:06:08.920Z,980.75
2018-04-11T10:07:08.923Z,980.75
2018-04-11T10:08:08.920Z,980.74
2018-04-11T10:09:08.921Z,980.66
2018-04-11T10:10:09.181Z,980.65
2018-04-11T10:11:08.927Z,980.63
2018-04-11T10:12:08.925Z,980.63
2018-04-11T10:13:08.924Z,980.61
2018-04-11T10:14:08.926Z,980.56
2018-04-11T10:15:09.308Z,980.57
2018-04-11T10:16:08.929Z,980.55
2018-04-11T10:17:08.925Z,980.59
2018-04-11T10:18:08.927Z,980.54
2018-04-11T10:19:08.979Z,980.58
2018-04-11T10:20:09.344Z,980.52
2018-04-11T10:21:08.933Z,980.52
2018-04-11T10:22:08.930Z,980.51
2018-04-11T10:52:53.106Z,980.39
2018-04-11T10:53:53.101Z,980.33
2018-04-11T10:54:53.135Z,980.29
2018-04-11T10:55:53.136Z,980.34
2018-04-11T10:56:53.094Z,980.31
2018-04-11T10:57:53.084Z,980.32
2018-04-11T10:58:53.085Z,980.29
2018-04-11T10:59:53.089Z,980.33
2018-04-11T11:00:53.116Z,980.35
2018-04-11T11:01:53.080Z,980.34
2018-04-11T11:02:53.076Z,980.36
2018-04-11T11:03:53.076Z,980.31
2018-04-11T11:04:53.079Z,980.3
2018-04-11T11:05:53.074Z,980.32
2018-04-11T11:06:53.074Z,980.3
2018-04-11T11:07:53.575Z,980.3
2018-04-11T11:08:53.074Z,980.31
2018-04-11T11:09:53.085Z,980.18
2018-04-11T11:10:53.074Z,980.18
2018-04-11T11:11:53.080Z,980.16
2018-04-11T11:12:53.074Z,980.12
2018-04-11T11:13:53.080Z,980.15
2018-04-11T11:14:53.086Z,980.1
2018-04-11T11:15:53.076Z,980.07
2018-04-11T11:16:53.080Z,980.05
2018-04-11T11:17:53.082Z,980.09
2018-04-11T11:18:53.078Z,980.01
2018-04-11T11:19:53.079Z,979.94
2018-04-11T11:20:53.078Z,979.98
2018-04-11T11:21:53.078Z,979.93
2018-04-11T11:22:53.151Z,979.93
2018-04-11T11:23:53.079Z,979.93
2018-04-11T11:24:53.086Z,979.94
2018-04-11T11:25:53.085Z,979.95
2018-04-11T11:26:53.088Z,979.89
2018-04-11T11:27:53.086Z,979.81
2018-04-11T11:28:53.088Z,979.89
2018-04-11T11:29:53.119Z,979.84
2018-04-11T11:30:53.088Z,979.84
2018-04-11T11:31:53.085Z,979.8
2018-04-11T11:32:53.085Z,979.74
2018-04-11T11:33:53.103Z,979.81
2018-04-11T11:34:53.087Z,979.82
2018-04-11T11:35:53.091Z,979.82
2018-04-11T11:36:53.090Z,979.78
2018-04-11T11:37:53.100Z,979.76
2018-04-11T11:38:53.093Z,979.82
2018-04-11T11:39:53.090Z,979.82
2018-04-11T11:40:53.094Z,979.81
2018-04-11T11:41:53.093Z,979.8
2018-04-11T11:42:53.093Z,979.77
2018-04-11T11:43:53.095Z,979.78
2018-04-11T11:44:53.095Z,979.72
2018-04-11T11:45:53.106Z,979.75
2018-04-11T11:46:53.094Z,979.77
2018-04-11T11:47:53.096Z,979.79
2018-04-11T11:48:53.101Z,979.77
2018-04-11T11:49:53.100Z,979.73
2018-04-11T11:50:53.099Z,979.74
2018-04-11T11:51:53.100Z,979.74
2018-04-11T11:52:53.102Z,979.71
2018-04-11T11:53:53.105Z,979.67
2018-04-11T11:54:53.104Z,979.68
2018-04-11T11:55:53.105Z,979.67
2018-04-11T11:56:53.111Z,979.67
2018-04-11T11:57:53.107Z,979.69
2018-04-11T11:58:53.107Z,979.62
2018-04-11T11:59:53.109Z,979.61
2018-04-11T12:00:53.111Z,979.61
2018-04-11T12:01:53.115Z,979.65
2018-04-11T12:02:53.115Z,979.6
2018-04-11T12:03:53.120Z,979.55
2018-04-11T12:04:53.137Z,979.54
2018-04-11T12:05:53.122Z,979.51
2018-04-11T12:06:53.116Z,979.48
2018-04-11T12:07:53.120Z,979.47
2018-04-11T12:08:53.122Z,979.46
2018-04-11T12:09:53.123Z,979.5
2018-04-11T12:10:53.122Z,979.49
2018-04-11T12:11:53.188Z,979.52
2018-04-11T12:12:53.123Z,979.47
2018-04-11T12:13:53.126Z,979.45
2018-04-11T12:14:53.127Z,979.5
2018-04-11T12:15:53.130Z,979.57
2018-04-11T12:16:53.129Z,979.48
2018-04-11T12:17:53.129Z,979.47
2018-04-11T12:18:53.932Z,979.48
2018-04-11T12:19:53.132Z,979.49
2018-04-11T12:20:53.133Z,979.48
2018-04-11T12:21:53.137Z,979.42
2018-04-11T12:22:53.136Z,979.46
2018-04-11T12:23:53.136Z,979.39
2018-04-11T12:24:53.138Z,979.43
2018-04-11T12:25:53.139Z,979.39
2018-04-11T12:26:53.143Z,979.47
2018-04-11T12:27:53.165Z,979.46
2018-04-11T12:28:53.145Z,979.43
2018-04-11T12:29:53.145Z,979.41
2018-04-11T12:30:53.147Z,979.43
2018-04-11T12:31:53.149Z,979.37
2018-04-11T12:32:53.154Z,979.37
2018-04-11T12:33:53.153Z,979.36
2018-04-11T12:34:53.153Z,979.32
2018-04-11T12:35:53.154Z,979.28
2018-04-11T12:36:53.160Z,979.28
2018-04-11T12:37:53.157Z,979.29
2018-04-11T12:38:53.158Z,979.32
2018-04-11T12:39:53.161Z,979.26
2018-04-11T12:40:53.161Z,979.22
2018-04-11T12:41:53.163Z,979.2
2018-04-11T12:42:53.170Z,979.19
2018-04-11T12:43:53.166Z,979.26
2018-04-11T12:44:53.169Z,979.22
2018-04-11T12:45:53.169Z,979.15
2018-04-11T12:46:53.170Z,979.19
2018-04-11T12:47:53.175Z,979.21
2018-04-11T12:48:53.173Z,979.15
2018-04-11T12:49:53.177Z,979.11
2018-04-11T12:50:53.174Z,979.1
2018-04-11T12:51:53.178Z,979.07
2018-04-11T12:52:53.179Z,979.08
2018-04-11T12:53:53.180Z,978.99
2018-04-11T12:54:53.180Z,979.05
2018-04-11T12:55:53.182Z,979.07
2018-04-11T12:56:53.183Z,979.09
2018-04-11T12:57:53.185Z,979.08
2018-04-11T12:58:53.201Z,979.12
2018-04-11T12:59:53.189Z,979.06
2018-04-11T13:00:53.190Z,979.08
2018-04-11T13:01:53.194Z,979.08
2018-04-11T13:02:53.193Z,979.01
2018-04-11T13:03:53.205Z,979
2018-04-11T13:04:53.197Z,979
2018-04-11T13:05:53.208Z,978.97
2018-04-11T13:06:53.203Z,978.98
2018-04-11T13:07:53.201Z,978.98
2018-04-11T13:08:53.203Z,979.01
2018-04-11T13:09:53.205Z,978.96
2018-04-11T13:10:53.211Z,978.96
2018-04-11T13:11:53.212Z,978.95
2018-04-11T13:12:53.211Z,978.91
2018-04-11T13:13:53.217Z,978.87
2018-04-11T13:14:53.216Z,978.83
2018-04-11T13:15:53.222Z,978.87
2018-04-11T13:16:53.218Z,978.88